Time;durP1;ratioP1;P1;durP2;ratioP2;P2;SDS_P1;SDS_P2;PMS_P1;PMS_P2;Temp;Humidity;BMP_temperature;BMP_pressure;BME280_temperature;BME280_humidity;BME280_pressure;Samples;Min_cycle;Max_cycle;Signal;HPM_P1;HPM_P2
2023/12/27 00:01:47;;;;;;;3.53;1.13;;;8.10;99.90;;;;;;4995309;28;20214;-83
2023/12/27 00:04:13;;;;;;;1.30;1.10;;;8.00;99.90;;;;;;4995974;28;20247;-79
2023/12/27 00:06:39;;;;;;;1.77;1.00;;;8.10;99.90;;;;;;4995583;28;20255;-81
2023/12/27 00:09:06;;;;;;;0.97;0.93;;;8.10;99.90;;;;;;4990016;28;20253;-78
2023/12/27 00:11:32;;;;;;;5.60;1.88;;;8.00;99.90;;;;;;4975105;28;20243;-79
2023/12/27 00:13:57;;;;;;;0.60;0.60;;;8.00;99.90;;;;;;4961864;28;20206;-84
2023/12/27 00:16:23;;;;;;;1.20;0.80;;;8.00;99.90;;;;;;4966449;28;20195;-82
2023/12/27 00:18:49;;;;;;;0.87;0.80;;;8.00;99.90;;;;;;4963567;28;20642;-83
2023/12/27 00:21:16;;;;;;;2.20;1.00;;;8.00;99.90;;;;;;4969257;28;20194;-81
2023/12/27 00:23:41;;;;;;;1.13;0.80;;;8.30;99.90;;;;;;4984602;28;20178;-80
2023/12/27 00:26:07;;;;;;;1.20;1.10;;;8.00;99.90;;;;;;4984688;28;20199;-81
2023/12/27 00:28:32;;;;;;;0.73;0.60;;;8.00;99.90;;;;;;4984245;28;20692;-86
2023/12/27 00:30:58;;;;;;;0.70;0.70;;;8.00;99.90;;;;;;4969588;28;20209;-84
2023/12/27 00:33:23;;;;;;;0.97;0.80;;;8.00;99.90;;;;;;4970184;28;20176;-85
2023/12/27 00:35:49;;;;;;;2.93;1.30;;;8.00;99.90;;;;;;4966424;28;20188;-83
2023/12/27 00:38:14;;;;;;;5.30;1.40;;;8.00;99.90;;;;;;4972007;28;20180;-85
2023/12/27 00:40:40;;;;;;;1.37;1.27;;;8.00;99.90;;;;;;4968228;28;20213;-81
2023/12/27 00:43:05;;;;;;;1.63;0.70;;;8.00;99.90;;;;;;4968121;28;20475;-86
2023/12/27 00:45:31;;;;;;;3.33;1.47;;;8.00;99.90;;;;;;4985193;28;20199;-84
2023/12/27 00:47:56;;;;;;;1.40;1.10;;;8.00;99.90;;;;;;4993223;28;20574;-86
2023/12/27 00:50:22;;;;;;;6.63;2.70;;;8.00;99.90;;;;;;4984176;28;20211;-84
2023/12/27 00:52:47;;;;;;;4.43;1.70;;;8.00;99.90;;;;;;4979431;28;20183;-81
2023/12/27 00:55:13;;;;;;;3.87;1.33;;;7.90;99.90;;;;;;4981346;28;20263;-83
2023/12/27 00:57:38;;;;;;;1.37;1.27;;;7.80;99.90;;;;;;4963877;28;20680;-85
2023/12/27 01:00:05;;;;;;;0.97;0.87;;;7.80;99.90;;;;;;4962832;28;20712;-80
2023/12/27 01:02:30;;;;;;;1.23;0.90;;;7.80;99.90;;;;;;4968384;28;20242;-81
2023/12/27 01:04:56;;;;;;;2.27;1.30;;;7.70;99.90;;;;;;4980363;28;20736;-80
2023/12/27 01:07:22;;;;;;;1.63;1.20;;;7.70;99.90;;;;;;4982648;28;20171;-81
2023/12/27 01:09:48;;;;;;;1.50;1.25;;;7.70;99.90;;;;;;4979466;28;20868;-82
2023/12/27 01:12:14;;;;;;;1.90;1.57;;;7.70;99.90;;;;;;4961418;28;20191;-83
2023/12/27 01:14:40;;;;;;;2.63;1.60;;;7.70;99.90;;;;;;4978868;28;20438;-80
2023/12/27 01:17:06;;;;;;;2.80;1.57;;;7.70;99.90;;;;;;4978331;28;20476;-82
2023/12/27 01:19:32;;;;;;;2.72;1.27;;;7.70;99.90;;;;;;4988734;28;20231;-84
2023/12/27 01:21:58;;;;;;;3.40;1.57;;;7.70;99.90;;;;;;4981353;28;20870;-82
2023/12/27 01:24:23;;;;;;;2.20;1.60;;;7.70;99.90;;;;;;4979152;28;20191;-81
2023/12/27 01:26:49;;;;;;;5.57;1.60;;;7.60;99.90;;;;;;4976889;28;20824;-82
2023/12/27 01:29:14;;;;;;;1.80;1.50;;;7.60;99.90;;;;;;4977908;28;20234;-84
2023/12/27 01:31:40;;;;;;;1.20;1.07;;;7.60;99.90;;;;;;4965923;28;20594;-84
2023/12/27 01:34:05;;;;;;;1.60;1.37;;;7.60;99.90;;;;;;4979435;28;20187;-84
2023/12/27 01:36:31;;;;;;;1.00;0.90;;;7.60;99.90;;;;;;4979555;28;20179;-81
2023/12/27 01:38:56;;;;;;;3.87;1.57;;;7.50;99.90;;;;;;4978586;28;20271;-82
2023/12/27 01:41:22;;;;;;;1.93;1.10;;;7.50;99.90;;;;;;4978130;28;20239;-80
2023/12/27 01:43:48;;;;;;;1.60;0.90;;;7.50;99.90;;;;;;4977298;28;20203;-85
2023/12/27 01:46:14;;;;;;;1.48;0.88;;;7.40;99.90;;;;;;4981165;28;20183;-82
2023/12/27 01:48:41;;;;;;;3.20;1.10;;;7.40;99.90;;;;;;4979252;28;20229;-83
2023/12/27 01:51:07;;;;;;;1.52;1.00;;;7.40;99.90;;;;;;4978763;28;20252;-81
2023/12/27 01:53:33;;;;;;;1.30;0.90;;;7.40;99.90;;;;;;4963911;28;21173;-83
2023/12/27 01:55:59;;;;;;;1.45;0.70;;;7.40;99.90;;;;;;4969225;28;20453;-83
2023/12/27 01:58:25;;;;;;;1.50;1.08;;;7.40;99.90;;;;;;4978870;28;20195;-86
2023/12/27 02:00:52;;;;;;;1.80;1.52;;;7.30;99.90;;;;;;4982238;28;20246;-82
2023/12/27 02:03:18;;;;;;;2.90;1.20;;;7.50;99.90;;;;;;4969996;28;20187;-85
2023/12/27 02:05:45;;;;;;;1.83;1.43;;;7.40;99.90;;;;;;4982536;28;20240;-84
2023/12/27 02:08:12;;;;;;;3.58;1.90;;;7.40;99.90;;;;;;4980607;28;20183;-85
2023/12/27 02:10:38;;;;;;;3.90;1.90;;;7.60;99.90;;;;;;4971084;28;20203;-82
2023/12/27 02:13:05;;;;;;;2.45;1.25;;;7.40;99.90;;;;;;4967342;28;20186;-79
2023/12/27 02:15:31;;;;;;;3.20;1.45;;;7.40;99.90;;;;;;4972758;28;20187;-83
2023/12/27 02:17:59;;;;;;;14.17;1.97;;;7.50;99.90;;;;;;4988515;28;20247;-82
2023/12/27 02:20:25;;;;;;;1.85;1.60;;;7.50;99.90;;;;;;4966183;28;20474;-82
2023/12/27 02:22:53;;;;;;;2.38;2.13;;;7.50;99.90;;;;;;4983536;28;21213;-84
2023/12/27 02:25:19;;;;;;;2.03;1.40;;;7.40;99.90;;;;;;4981979;28;20198;-83
2023/12/27 02:27:45;;;;;;;1.73;1.63;;;7.40;99.90;;;;;;4983603;28;20199;-82
2023/12/27 02:30:22;;;;;;;1.67;1.30;;;7.30;99.90;;;;;;4985620;28;20203;-81
2023/12/27 02:32:51;;;;;;;3.00;1.65;;;7.20;99.90;;;;;;4987770;28;20191;-83
2023/12/27 02:35:17;;;;;;;2.22;1.80;;;7.20;99.90;;;;;;4986010;28;20661;-82
2023/12/27 02:37:43;;;;;;;3.15;1.33;;;7.20;99.90;;;;;;4983848;28;20194;-81
2023/12/27 02:40:09;;;;;;;1.23;0.97;;;7.20;99.90;;;;;;4985556;28;20215;-82
2023/12/27 02:42:36;;;;;;;2.57;1.37;;;7.20;99.90;;;;;;4966040;28;20438;-81
2023/12/27 02:45:02;;;;;;;2.53;1.63;;;7.30;99.90;;;;;;4968739;28;20180;-85
2023/12/27 02:47:27;;;;;;;1.80;1.20;;;7.30;99.90;;;;;;4982729;28;20191;-83
2023/12/27 02:49:53;;;;;;;4.03;1.80;;;7.30;99.90;;;;;;4983594;28;20678;-82
2023/12/27 02:52:18;;;;;;;6.37;1.67;;;7.30;99.90;;;;;;4980177;28;20252;-83
2023/12/27 02:54:44;;;;;;;3.80;2.90;;;7.40;99.90;;;;;;4968623;28;20662;-84
2023/12/27 02:57:09;;;;;;;3.07;1.33;;;7.40;99.90;;;;;;4984479;28;20187;-80
2023/12/27 02:59:35;;;;;;;1.30;1.20;;;7.40;99.90;;;;;;4985010;28;20218;-85
2023/12/27 03:02:00;;;;;;;2.17;1.40;;;7.40;99.90;;;;;;4980912;28;20211;-82
2023/12/27 03:04:26;;;;;;;1.13;1.03;;;7.50;99.90;;;;;;4967794;28;20211;-79
2023/12/27 03:06:51;;;;;;;2.93;1.27;;;7.60;99.90;;;;;;4982203;28;20261;-81
2023/12/27 03:09:17;;;;;;;2.60;1.33;;;7.60;99.90;;;;;;4978878;28;20234;-85
2023/12/27 03:11:42;;;;;;;2.93;1.67;;;7.70;99.90;;;;;;4970007;28;20208;-80
2023/12/27 03:14:08;;;;;;;1.53;1.03;;;7.90;99.90;;;;;;4966169;28;20201;-81
2023/12/27 03:16:33;;;;;;;3.77;2.00;;;7.90;99.90;;;;;;4969001;28;20236;-83
2023/12/27 03:18:59;;;;;;;6.00;2.13;;;8.00;99.90;;;;;;4982026;28;20888;-83
2023/12/27 03:21:25;;;;;;;4.27;2.63;;;8.10;99.90;;;;;;4982770;28;20213;-83
2023/12/27 03:23:51;;;;;;;4.10;2.50;;;8.20;99.90;;;;;;4983716;28;20437;-82
2023/12/27 03:26:17;;;;;;;4.70;2.97;;;8.20;99.90;;;;;;4983248;28;20465;-81
2023/12/27 03:28:42;;;;;;;4.20;2.03;;;8.10;99.90;;;;;;4981113;28;20204;-81
2023/12/27 03:31:08;;;;;;;7.47;3.00;;;8.10;99.90;;;;;;4983214;28;20274;-80
2023/12/27 03:33:33;;;;;;;3.00;1.33;;;8.30;99.90;;;;;;4981503;28;20661;-82
2023/12/27 03:35:59;;;;;;;3.30;1.70;;;8.30;99.90;;;;;;4978511;28;20821;-82
2023/12/27 03:38:24;;;;;;;1.70;1.40;;;8.40;99.90;;;;;;4982666;28;20202;-79
2023/12/27 03:40:50;;;;;;;2.77;1.87;;;8.40;99.90;;;;;;4982422;28;20187;-83
2023/12/27 03:43:16;;;;;;;4.17;2.30;;;8.40;99.90;;;;;;4981358;28;20262;-83
2023/12/27 03:45:42;;;;;;;2.30;2.10;;;8.30;99.90;;;;;;4985712;28;20237;-82
2023/12/27 03:48:08;;;;;;;2.93;2.03;;;;;;;;;;4965644;28;20192;-81
2023/12/27 03:50:34;;;;;;;1.17;1.05;;;8.20;99.90;;;;;;4984302;28;20183;-84
2023/12/27 03:52:59;;;;;;;1.53;1.17;;;8.10;99.90;;;;;;4987123;28;20761;-82
2023/12/27 03:55:25;;;;;;;2.40;1.70;;;8.00;99.90;;;;;;4984825;28;20191;-79
2023/12/27 03:57:52;;;;;;;4.20;3.07;;;7.90;99.90;;;;;;4984674;28;20179;-84
2023/12/27 04:00:18;;;;;;;2.67;1.55;;;8.00;99.90;;;;;;4981759;28;20512;-80
2023/12/27 04:02:43;;;;;;;2.67;2.20;;;8.00;99.90;;;;;;4984470;28;20474;-81
2023/12/27 04:05:09;;;;;;;3.33;2.00;;;8.10;99.90;;;;;;4969261;28;20562;-83
2023/12/27 04:07:34;;;;;;;2.73;1.90;;;8.10;99.90;;;;;;4980729;28;20218;-85
2023/12/27 04:10:00;;;;;;;5.50;2.30;;;8.10;99.90;;;;;;4978754;28;20225;-83
2023/12/27 04:12:27;;;;;;;1.63;1.40;;;8.20;99.90;;;;;;4981590;28;21051;-79
2023/12/27 04:14:52;;;;;;;3.92;2.40;;;8.30;99.90;;;;;;4982557;28;20251;-82
2023/12/27 04:17:18;;;;;;;8.23;2.40;;;8.30;99.90;;;;;;4979886;28;20333;-81
2023/12/27 04:19:43;;;;;;;4.30;1.40;;;8.40;99.90;;;;;;4982460;28;20597;-81
2023/12/27 04:22:09;;;;;;;3.77;1.93;;;8.30;99.90;;;;;;4972158;28;20197;-83
2023/12/27 04:24:35;;;;;;;1.47;1.37;;;8.30;99.90;;;;;;4980352;28;20171;-80
2023/12/27 04:27:01;;;;;;;2.03;1.48;;;8.40;99.90;;;;;;4977659;28;20183;-82
2023/12/27 04:29:26;;;;;;;5.03;1.40;;;8.40;99.90;;;;;;4978520;28;20293;-80
2023/12/27 04:31:52;;;;;;;3.60;1.20;;;8.40;99.90;;;;;;4979156;28;20194;-81
2023/12/27 04:34:17;;;;;;;1.60;1.50;;;8.40;99.90;;;;;;4978291;28;20188;-79
2023/12/27 04:36:42;;;;;;;2.50;1.13;;;8.50;99.90;;;;;;4978524;28;20197;-81
2023/12/27 04:39:08;;;;;;;2.80;1.20;;;8.40;99.90;;;;;;4979297;28;20254;-82
2023/12/27 04:41:34;;;;;;;3.43;1.70;;;8.30;99.90;;;;;;4981334;28;20214;-82
2023/12/27 04:43:59;;;;;;;1.47;1.37;;;8.20;99.90;;;;;;4985507;28;20200;-82
2023/12/27 04:46:25;;;;;;;2.43;1.50;;;8.10;99.90;;;;;;4981426;28;20183;-81
2023/12/27 04:48:50;;;;;;;1.27;1.17;;;8.00;99.90;;;;;;4966977;28;20208;-83
2023/12/27 04:51:16;;;;;;;2.47;1.60;;;8.00;99.90;;;;;;4976022;28;20195;-83
2023/12/27 04:53:42;;;;;;;3.33;2.00;;;8.00;99.90;;;;;;4978155;28;20195;-81
2023/12/27 04:56:08;;;;;;;2.22;2.00;;;7.90;99.90;;;;;;4979727;28;20236;-82
2023/12/27 04:58:35;;;;;;;3.63;1.77;;;7.90;99.90;;;;;;4980975;28;20222;-80
2023/12/27 05:01:04;;;;;;;3.05;1.48;;;8.00;99.90;;;;;;4980220;28;20188;-82
2023/12/27 05:03:30;;;;;;;2.30;1.90;;;8.10;99.90;;;;;;4963926;28;20187;-82
2023/12/27 05:05:55;;;;;;;12.00;1.73;;;8.10;99.90;;;;;;4977241;28;20187;-77
2023/12/27 05:08:21;;;;;;;1.50;1.10;;;8.30;99.90;;;;;;4964110;28;20183;-84
2023/12/27 05:10:46;;;;;;;2.50;1.90;;;8.10;99.90;;;;;;4980059;28;20310;-81
2023/12/27 05:13:12;;;;;;;1.80;1.17;;;7.90;99.90;;;;;;4979867;28;20393;-83
2023/12/27 05:15:37;;;;;;;2.20;1.70;;;7.90;99.90;;;;;;4962609;28;20191;-80
2023/12/27 05:18:03;;;;;;;1.93;1.60;;;8.00;99.90;;;;;;4979677;28;20220;-82
2023/12/27 05:20:28;;;;;;;2.03;1.47;;;8.10;99.90;;;;;;4979567;28;20241;-83
2023/12/27 05:22:54;;;;;;;2.00;1.63;;;8.10;99.90;;;;;;4981161;28;20179;-81
2023/12/27 05:25:19;;;;;;;4.67;2.03;;;8.10;99.90;;;;;;4983466;28;20222;-82
2023/12/27 05:27:45;;;;;;;2.20;1.63;;;8.20;99.90;;;;;;4984549;28;20281;-79
2023/12/27 05:30:11;;;;;;;2.13;1.93;;;8.20;99.90;;;;;;4962776;28;20243;-83
2023/12/27 05:32:36;;;;;;;4.13;1.70;;;8.20;99.90;;;;;;4966269;28;20281;-81
2023/12/27 05:35:03;;;;;;;1.50;1.40;;;8.20;99.90;;;;;;4967165;28;21143;-84
2023/12/27 05:37:28;;;;;;;2.50;1.85;;;8.30;99.90;;;;;;4983737;28;20195;-81
2023/12/27 05:39:54;;;;;;;1.80;1.40;;;8.30;99.90;;;;;;4986731;28;20226;-82
2023/12/27 05:42:19;;;;;;;2.30;1.10;;;8.30;99.90;;;;;;4991042;28;20619;-85
2023/12/27 05:44:46;;;;;;;4.30;2.40;;;8.20;99.90;;;;;;4971798;28;20187;-80
2023/12/27 05:47:11;;;;;;;2.72;1.55;;;8.20;99.90;;;;;;4983991;28;20190;-81
2023/12/27 05:49:37;;;;;;;3.10;1.90;;;8.30;99.90;;;;;;4977062;28;20701;-81
2023/12/27 05:52:03;;;;;;;2.60;1.40;;;8.30;99.90;;;;;;4988203;28;20186;-80
2023/12/27 05:54:29;;;;;;;3.15;1.45;;;8.30;99.90;;;;;;4986221;28;20179;-84
2023/12/27 05:56:54;;;;;;;1.40;1.00;;;8.40;99.90;;;;;;4984425;28;20762;-81
2023/12/27 05:59:20;;;;;;;3.40;1.70;;;8.40;99.90;;;;;;4986061;23;21424;-81
2023/12/27 06:01:52;;;;;;;2.03;1.80;;;8.30;99.90;;;;;;4985245;28;20552;-79
2023/12/27 06:04:18;;;;;;;1.77;1.30;;;8.30;99.90;;;;;;4985254;28;20207;-82
2023/12/27 06:06:44;;;;;;;4.80;1.63;;;8.30;99.90;;;;;;4977019;28;20199;-81
2023/12/27 06:09:10;;;;;;;2.13;1.63;;;8.20;99.90;;;;;;4961915;28;20195;-84
2023/12/27 06:11:37;;;;;;;3.58;1.33;;;8.10;99.90;;;;;;4966277;28;20203;-83
2023/12/27 06:14:03;;;;;;;8.25;1.50;;;7.90;99.90;;;;;;4983127;28;20244;-85
2023/12/27 06:16:29;;;;;;;2.70;1.55;;;7.90;99.90;;;;;;4967994;28;20179;-86
2023/12/27 06:18:56;;;;;;;3.77;2.70;;;;;;;;;;4966385;28;20220;-83
2023/12/27 06:21:22;;;;;;;1.98;1.80;;;7.70;99.90;;;;;;4968879;28;20211;-83
2023/12/27 06:23:47;;;;;;;2.80;1.37;;;7.70;99.90;;;;;;4971137;28;20191;-85
2023/12/27 06:26:13;;;;;;;1.73;1.63;;;7.40;99.90;;;;;;4974315;28;20635;-82
2023/12/27 06:28:41;;;;;;;2.23;1.90;;;7.40;99.90;;;;;;4976374;28;20967;-85
2023/12/27 06:31:07;;;;;;;3.95;1.05;;;7.30;99.90;;;;;;4971012;28;20202;-83
2023/12/27 06:33:32;;;;;;;3.20;1.23;;;7.20;99.90;;;;;;4970743;28;20658;-84
2023/12/27 06:35:58;;;;;;;2.67;1.73;;;7.20;99.90;;;;;;4966944;28;20313;-84
2023/12/27 06:38:23;;;;;;;3.80;1.90;;;7.20;99.90;;;;;;4970573;28;20231;-84
2023/12/27 06:40:49;;;;;;;1.37;0.83;;;7.20;99.90;;;;;;4976891;28;20271;-84
2023/12/27 06:43:14;;;;;;;2.03;1.60;;;7.20;99.90;;;;;;4966727;28;20237;-82
2023/12/27 06:45:40;;;;;;;2.73;1.03;;;7.30;99.90;;;;;;4979971;28;20264;-84
2023/12/27 06:48:06;;;;;;;5.90;0.80;;;7.30;99.90;;;;;;4969153;28;20196;-83
2023/12/27 06:50:31;;;;;;;0.70;0.70;;;7.20;99.90;;;;;;4976795;28;20863;-87
2023/12/27 06:52:57;;;;;;;2.53;1.13;;;7.20;99.90;;;;;;4970663;28;20474;-85
2023/12/27 06:55:23;;;;;;;1.53;0.90;;;7.20;99.90;;;;;;4974839;28;21254;-81
2023/12/27 06:57:48;;;;;;;0.60;0.50;;;7.20;99.90;;;;;;4970721;28;20692;-87
2023/12/27 07:00:14;;;;;;;2.77;1.07;;;7.30;99.90;;;;;;4962390;28;20207;-85
2023/12/27 07:02:40;;;;;;;2.03;0.80;;;7.30;99.90;;;;;;4977763;28;20865;-83
2023/12/27 07:05:07;;;;;;;1.47;1.20;;;7.30;99.90;;;;;;4996957;28;20534;-84
2023/12/27 07:07:33;;;;;;;1.73;1.55;;;7.40;99.90;;;;;;4991918;28;20868;-84
2023/12/27 07:09:59;;;;;;;1.48;1.38;;;7.40;99.90;;;;;;4983396;28;20187;-81
2023/12/27 07:12:25;;;;;;;2.23;1.80;;;7.50;99.90;;;;;;4971395;28;21618;-87
2023/12/27 07:14:50;;;;;;;1.03;0.90;;;7.60;99.90;;;;;;4968939;28;20202;-87
2023/12/27 07:17:16;;;;;;;2.97;1.73;;;7.60;99.90;;;;;;4964264;28;20302;-82
2023/12/27 07:19:41;;;;;;;4.33;2.07;;;7.70;99.90;;;;;;4981977;28;20215;-84
2023/12/27 07:22:07;;;;;;;2.07;1.33;;;7.70;99.90;;;;;;4983796;28;20812;-83
2023/12/27 07:24:33;;;;;;;1.50;0.90;;;;;;;;;;4979232;28;20183;-86
2023/12/27 07:26:58;;;;;;;3.43;1.00;;;7.80;99.90;;;;;;4980229;28;20241;-84
2023/12/27 07:29:24;;;;;;;2.20;1.20;;;7.80;99.90;;;;;;4965128;28;20438;-84
2023/12/27 07:31:49;;;;;;;4.13;1.73;;;7.70;99.90;;;;;;4983526;28;20220;-82
2023/12/27 07:34:16;;;;;;;1.67;1.10;;;7.70;99.90;;;;;;4965494;28;20203;-88
2023/12/27 07:36:43;;;;;;;4.18;2.00;;;;;;;;;;4968378;28;20198;-84
2023/12/27 07:39:09;;;;;;;5.50;1.80;;;;;;;;;;4973522;28;20818;-85
2023/12/27 07:41:35;;;;;;;1.33;1.15;;;7.70;99.90;;;;;;4961738;28;20199;-84
2023/12/27 07:44:01;;;;;;;2.07;1.90;;;7.80;99.90;;;;;;4964965;28;20202;-83
2023/12/27 07:46:26;;;;;;;2.43;1.20;;;7.80;99.90;;;;;;4974590;28;20433;-83
2023/12/27 07:48:52;;;;;;;5.17;2.60;;;;;;;;;;4959902;28;20194;-81
2023/12/27 07:51:18;;;;;;;2.50;2.30;;;7.80;99.90;;;;;;4964132;28;20233;-84
2023/12/27 07:53:44;;;;;;;5.40;1.93;;;7.80;99.90;;;;;;4964320;28;20552;-87
2023/12/27 07:56:12;;;;;;;5.03;1.47;;;7.80;99.90;;;;;;4965117;28;20247;-82
2023/12/27 07:58:37;;;;;;;6.60;2.20;;;7.90;99.90;;;;;;4961543;28;20183;-89
2023/12/27 08:01:03;;;;;;;4.50;1.27;;;8.00;99.90;;;;;;4979081;28;20199;-82
2023/12/27 08:03:29;;;;;;;1.93;1.43;;;8.00;99.90;;;;;;4967129;28;20191;-84
2023/12/27 08:05:54;;;;;;;2.20;1.40;;;8.10;99.90;;;;;;4979978;28;20754;-83
2023/12/27 08:08:20;;;;;;;1.60;1.20;;;8.10;99.90;;;;;;4969364;28;20219;-83
2023/12/27 08:10:45;;;;;;;2.30;1.10;;;8.10;99.90;;;;;;4960553;28;20213;-86
2023/12/27 08:13:11;;;;;;;3.20;1.90;;;8.10;99.90;;;;;;4980043;28;21226;-85
2023/12/27 08:15:37;;;;;;;11.53;1.10;;;;;;;;;;4995699;28;20175;-81
2023/12/27 08:18:03;;;;;;;1.97;0.93;;;8.10;99.90;;;;;;4958239;28;20183;-83
2023/12/27 08:20:29;;;;;;;2.03;1.35;;;8.10;99.90;;;;;;4977450;28;21897;-83
2023/12/27 08:22:55;;;;;;;2.55;1.77;;;;;;;;;;4967309;28;20218;-85
2023/12/27 08:25:24;;;;;;;5.85;1.60;;;8.30;99.90;;;;;;4970568;28;20621;-82
2023/12/27 08:27:49;;;;;;;4.85;2.08;;;8.60;99.90;;;;;;5039946;28;20205;-87
2023/12/27 08:30:15;;;;;;;3.57;2.17;;;8.40;99.90;;;;;;4972550;28;20684;-85
2023/12/27 08:32:40;;;;;;;3.03;1.20;;;8.50;99.90;;;;;;4975155;28;20218;-82
2023/12/27 08:35:06;;;;;;;5.40;1.83;;;9.00;99.90;;;;;;4991412;28;20238;-85
2023/12/27 08:37:32;;;;;;;1.30;1.20;;;9.40;99.90;;;;;;4987286;28;20198;-89
2023/12/27 08:39:58;;;;;;;1.77;1.53;;;9.30;99.90;;;;;;4988501;28;20215;-86
2023/12/27 08:42:24;;;;;;;1.40;1.30;;;;;;;;;;4967772;28;20724;-83
2023/12/27 08:44:50;;;;;;;4.22;0.95;;;9.00;99.90;;;;;;4986107;28;20293;-85
2023/12/27 08:47:16;;;;;;;3.13;1.80;;;;;;;;;;4973963;28;20224;-85
2023/12/27 08:49:42;;;;;;;2.63;2.43;;;8.60;99.90;;;;;;4977949;28;20195;-82
2023/12/27 08:52:07;;;;;;;2.07;1.30;;;8.30;99.90;;;;;;4985305;28;20859;-87
2023/12/27 08:54:33;;;;;;;2.13;1.30;;;;;;;;;;4975176;28;20310;-83
2023/12/27 08:56:59;;;;;;;1.40;0.80;;;8.40;99.90;;;;;;4982277;28;20660;-86
2023/12/27 08:59:24;;;;;;;7.97;1.27;;;8.90;99.90;;;;;;4954423;28;20472;-86
2023/12/27 09:01:50;;;;;;;4.90;1.80;;;;;;;;;;4962855;28;20221;-84
2023/12/27 09:04:19;;;;;;;2.13;1.37;;;;;;;;;;4972695;28;20314;-86
2023/12/27 09:06:45;;;;;;;1.38;1.27;;;9.20;99.90;;;;;;4976687;28;20538;-84
2023/12/27 09:09:11;;;;;;;1.00;0.90;;;9.20;99.90;;;;;;4973778;28;20266;-85
2023/12/27 09:11:37;;;;;;;1.20;1.05;;;9.30;99.90;;;;;;4975496;28;20222;-87
2023/12/27 09:14:03;;;;;;;4.10;1.03;;;;;;;;;;4980965;28;20851;-88
2023/12/27 09:16:29;;;;;;;2.38;1.35;;;9.80;99.90;;;;;;4961649;28;20232;-83
2023/12/27 09:18:55;;;;;;;2.13;1.43;;;;;;;;;;4970699;28;20222;-88
2023/12/27 09:21:20;;;;;;;1.60;0.70;;;10.10;99.90;;;;;;4973361;28;20210;-81
2023/12/27 09:23:45;;;;;;;2.63;1.80;;;9.90;99.90;;;;;;4996120;28;20571;-84
2023/12/27 09:26:15;;;;;;;1.93;0.83;;;9.70;99.90;;;;;;4976679;28;20579;-86
2023/12/27 09:28:40;;;;;;;2.58;1.85;;;9.40;99.90;;;;;;4976390;28;20215;-82
2023/12/27 09:31:08;;;;;;;5.83;1.53;;;9.30;99.90;;;;;;4969433;28;20337;-85
2023/12/27 09:33:33;;;;;;;2.35;1.50;;;9.30;99.90;;;;;;4982216;28;20206;-82
2023/12/27 09:35:59;;;;;;;2.33;1.10;;;;;;;;;;4982388;28;20191;-84
2023/12/27 09:38:25;;;;;;;4.83;2.00;;;9.70;99.90;;;;;;4970800;28;20210;-85
2023/12/27 09:40:50;;;;;;;2.60;1.60;;;9.80;99.90;;;;;;4960618;28;20460;-85
2023/12/27 09:43:17;;;;;;;5.13;1.53;;;9.80;99.90;;;;;;4964371;28;20218;-88
2023/12/27 09:45:44;;;;;;;5.10;0.95;;;9.90;99.90;;;;;;4972339;28;20252;-88
2023/12/27 09:48:11;;;;;;;2.50;1.65;;;9.80;99.90;;;;;;4965464;28;20512;-85
2023/12/27 09:50:40;;;;;;;5.82;1.52;;;9.90;99.90;;;;;;4968271;28;20187;-83
2023/12/27 09:53:09;;;;;;;5.05;1.52;;;9.90;99.90;;;;;;4963182;28;20210;-81
2023/12/27 09:55:34;;;;;;;5.38;1.92;;;9.60;99.90;;;;;;4970148;28;20195;-86
2023/12/27 09:58:00;;;;;;;3.03;2.20;;;9.50;99.90;;;;;;4978278;28;20279;-87
2023/12/27 10:00:30;;;;;;;2.73;1.27;;;9.60;99.90;;;;;;4981131;28;20202;-83
2023/12/27 10:02:58;;;;;;;2.15;1.50;;;10.00;99.90;;;;;;4983943;28;20221;-85
2023/12/27 10:05:43;;;;;;;2.33;1.13;;;10.10;99.90;;;;;;4977404;28;20198;-89
2023/12/27 10:08:10;;;;;;;1.20;0.80;;;10.10;99.90;;;;;;4979161;28;20335;-85
2023/12/27 10:10:36;;;;;;;2.75;1.20;;;;;;;;;;4974809;28;20203;-82
2023/12/27 10:13:04;;;;;;;2.78;1.75;;;10.20;99.90;;;;;;5002059;28;20211;-84
2023/12/27 10:15:29;;;;;;;9.70;1.67;;;10.40;99.90;;;;;;4987886;28;20183;-83
2023/12/27 10:17:57;;;;;;;7.57;1.70;;;10.00;99.90;;;;;;5020184;27;20254;-84
2023/12/27 10:20:32;;;;;;;1.48;0.95;;;9.90;99.90;;;;;;4993292;28;20223;-86
2023/12/27 10:23:00;;;;;;;3.47;1.48;;;10.00;99.90;;;;;;5009225;28;20263;-89
2023/12/27 10:25:28;;;;;;;2.70;1.80;;;9.50;99.90;;;;;;4985150;28;20236;-84
2023/12/27 10:27:54;;;;;;;0.55;0.55;;;9.30;99.90;;;;;;4975388;28;20174;-83
2023/12/27 10:30:21;;;;;;;1.60;1.20;;;;;;;;;;4993419;28;20214;-84
2023/12/27 10:32:59;;;;;;;2.35;1.50;;;9.20;99.90;;;;;;4971458;28;20297;-87
2023/12/27 10:35:26;;;;;;;1.58;1.20;;;9.20;99.90;;;;;;4990404;28;20212;-83
2023/12/27 10:38:04;;;;;;;1.92;1.30;;;9.10;99.90;;;;;;4967244;28;20677;-86
2023/12/27 10:40:30;;;;;;;1.98;0.80;;;9.10;99.90;;;;;;4977333;28;20227;-85
2023/12/27 10:42:57;;;;;;;1.65;1.25;;;9.30;99.90;;;;;;4964477;28;20680;-84
2023/12/27 10:45:22;;;;;;;2.08;1.02;;;9.20;99.90;;;;;;4967441;28;20652;-86
2023/12/27 10:47:49;;;;;;;2.73;1.00;;;;;;;;;;4975207;28;20293;-82
2023/12/27 10:50:19;;;;;;;2.28;1.25;;;10.00;99.90;;;;;;4975150;28;20249;-84
2023/12/27 10:52:56;;;;;;;0.50;0.45;;;10.20;99.90;;;;;;4986067;28;20613;-89
2023/12/27 10:55:27;;;;;;;2.17;1.13;;;10.10;99.90;;;;;;4984479;28;20195;-84
2023/12/27 10:57:55;;;;;;;0.80;0.50;;;9.90;99.90;;;;;;4983535;28;20772;-87
2023/12/27 11:00:22;;;;;;;1.10;0.82;;;9.90;99.90;;;;;;4980009;28;20349;-88
2023/12/27 11:02:49;;;;;;;2.05;0.57;;;10.00;99.90;;;;;;4967949;28;20207;-86
2023/12/27 11:05:15;;;;;;;1.10;0.75;;;9.90;99.90;;;;;;4999609;28;20263;-83
2023/12/27 11:07:44;;;;;;;1.95;1.20;;;10.10;99.90;;;;;;4987173;28;20203;-81
2023/12/27 11:10:14;;;;;;;2.50;0.57;;;10.10;99.90;;;;;;4983099;28;20180;-87
2023/12/27 11:12:45;;;;;;;1.30;0.60;;;10.20;99.90;;;;;;4982639;28;20218;-80
2023/12/27 11:15:12;;;;;;;5.38;1.33;;;10.40;99.90;;;;;;4959128;28;20756;-81
2023/12/27 11:17:39;;;;;;;1.40;1.20;;;10.40;99.90;;;;;;4979444;28;20263;-83
2023/12/27 11:20:09;;;;;;;4.05;1.10;;;10.50;99.90;;;;;;4983047;28;20222;-82
2023/12/27 11:22:35;;;;;;;1.88;0.50;;;10.40;99.90;;;;;;4976019;28;20217;-81
2023/12/27 11:25:01;;;;;;;1.10;0.50;;;12.20;99.90;;;;;;4976690;28;20206;-83
2023/12/27 11:27:27;;;;;;;2.87;0.80;;;10.80;99.90;;;;;;5030913;28;20274;-85
2023/12/27 11:29:54;;;;;;;1.15;0.75;;;11.20;99.90;;;;;;4962526;28;20434;-84
2023/12/27 11:32:19;;;;;;;2.05;1.27;;;11.10;99.90;;;;;;4976902;28;20217;-84
2023/12/27 11:34:49;;;;;;;1.20;1.07;;;11.50;99.90;;;;;;4980747;28;20335;-80
2023/12/27 11:37:16;;;;;;;0.60;0.60;;;11.70;99.90;;;;;;4997410;28;20290;-83
2023/12/27 11:39:52;;;;;;;1.03;0.63;;;11.90;99.90;;;;;;5039011;28;20218;-83
2023/12/27 11:42:31;;;;;;;1.17;1.03;;;11.90;99.90;;;;;;5006532;28;20458;-83
2023/12/27 11:44:58;;;;;;;3.50;0.77;;;11.80;99.90;;;;;;5058818;28;20465;-82
2023/12/27 11:47:27;;;;;;;0.70;0.68;;;12.00;99.90;;;;;;4985300;28;20463;-80
2023/12/27 11:50:11;;;;;;;0.63;0.60;;;11.80;99.90;;;;;;4982007;28;20183;-80
2023/12/27 11:52:47;;;;;;;0.60;0.52;;;11.70;99.90;;;;;;5001224;28;20218;-82
2023/12/27 11:55:14;;;;;;;1.60;1.10;;;12.00;99.90;;;;;;4993728;28;21786;-83
2023/12/27 11:57:40;;;;;;;1.48;0.70;;;;;;;;;;4978818;28;20466;-83
2023/12/27 12:00:06;;;;;;;3.37;1.03;;;12.30;99.90;;;;;;4982596;28;20246;-84
2023/12/27 12:02:33;;;;;;;3.80;0.80;;;12.50;99.90;;;;;;4981522;28;20628;-83
2023/12/27 12:05:35;;;;;;;1.73;0.77;;;12.70;99.90;;;;;;4959288;28;20518;-85
2023/12/27 12:08:39;;;;;;;1.33;0.77;;;12.80;99.90;;;;;;4986511;28;20446;-86
2023/12/27 12:11:06;;;;;;;1.33;1.03;;;12.90;99.90;;;;;;4983720;28;20786;-81
2023/12/27 12:13:33;;;;;;;1.77;1.47;;;12.80;99.90;;;;;;4980995;28;21024;-85
2023/12/27 12:15:58;;;;;;;2.37;1.10;;;12.70;99.90;;;;;;4960952;28;21474;-84
2023/12/27 12:18:25;;;;;;;1.80;0.37;;;;;;;;;;4977151;28;20467;-84
2023/12/27 12:20:51;;;;;;;1.37;0.80;;;12.90;99.90;;;;;;4975514;28;20245;-81
2023/12/27 12:23:17;;;;;;;1.40;1.03;;;;;;;;;;4986015;28;20442;-84
2023/12/27 12:25:49;;;;;;;1.63;0.40;;;13.10;99.90;;;;;;4987506;28;20440;-83
2023/12/27 12:28:15;;;;;;;1.07;0.70;;;;;;;;;;5002446;28;20454;-83
2023/12/27 12:30:47;;;;;;;1.10;0.73;;;13.50;99.90;;;;;;4987826;28;20446;-87
2023/12/27 12:33:12;;;;;;;2.00;0.70;;;13.60;99.90;;;;;;4965060;28;20595;-82
2023/12/27 12:35:39;;;;;;;1.37;1.00;;;13.70;99.90;;;;;;4983285;28;20504;-86
2023/12/27 12:38:05;;;;;;;1.03;0.93;;;13.80;99.90;;;;;;4968778;28;20184;-83
2023/12/27 12:40:31;;;;;;;2.33;0.77;;;;;;;;;;4963676;28;20530;-86
2023/12/27 12:42:57;;;;;;;0.53;0.50;;;;;;;;;;4989504;28;20570;-85
2023/12/27 12:45:23;;;;;;;2.00;0.90;;;14.10;99.90;;;;;;4967096;28;20457;-85
2023/12/27 12:47:50;;;;;;;1.57;0.80;;;14.00;99.90;;;;;;4994303;28;20461;-86
2023/12/27 12:50:19;;;;;;;1.97;0.60;;;13.90;99.90;;;;;;4993947;28;20490;-82
2023/12/27 12:52:45;;;;;;;2.30;1.03;;;13.80;99.90;;;;;;4974799;28;20503;-84
2023/12/27 12:55:12;;;;;;;2.10;0.70;;;13.40;99.90;;;;;;4987043;28;20449;-84
2023/12/27 12:57:38;;;;;;;0.63;0.63;;;13.40;99.90;;;;;;4982340;28;20532;-88
2023/12/27 13:00:08;;;;;;;5.20;1.07;;;13.30;99.90;;;;;;4967749;28;20473;-83